createdAt,value
2019-01-24T00:00:15.804Z,0.10
2019-01-24T00:00:51.956Z,0.10
2019-01-24T00:01:26.467Z,0.10
2019-01-24T00:02:00.970Z,0.20
2019-01-24T00:02:35.537Z,0.20
2019-01-24T00:03:10.088Z,0.20
2019-01-24T00:03:44.609Z,0.20
2019-01-24T00:04:19.176Z,0.20
2019-01-24T00:04:53.938Z,0.30
2019-01-24T00:05:28.864Z,0.30
2019-01-24T00:06:03.371Z,0.30
2019-01-24T00:06:38.133Z,0.30
2019-01-24T00:07:12.707Z,0.30
2019-01-24T00:07:47.203Z,0.30
2019-01-24T00:08:21.713Z,0.30
2019-01-24T00:08:56.220Z,0.30
2019-01-24T00:09:30.809Z,0.30
2019-01-24T00:10:11.161Z,0.30
2019-01-24T00:10:45.760Z,0.40
2019-01-24T00:11:20.273Z,0.40
2019-01-24T00:11:55.053Z,0.40
2019-01-24T00:12:31.028Z,0.40
2019-01-24T00:13:05.557Z,0.40
2019-01-24T00:13:40.144Z,0.40
2019-01-24T00:14:14.825Z,0.40
2019-01-24T00:14:49.413Z,0.50
2019-01-24T00:15:23.934Z,0.40
2019-01-24T00:16:00.085Z,0.50
2019-01-24T00:16:34.877Z,0.50
2019-01-24T00:17:09.397Z,0.50
2019-01-24T00:17:44.061Z,0.50
2019-01-24T00:18:18.636Z,0.50
2019-01-24T00:18:53.233Z,0.50
2019-01-24T00:19:27.840Z,0.50
2019-01-24T00:20:02.445Z,0.50
2019-01-24T00:20:37.025Z,0.50
2019-01-24T00:21:11.532Z,0.50
2019-01-24T00:22:02.231Z,0.40
2019-01-24T00:22:36.424Z,0.50
2019-01-24T00:23:11.049Z,0.40
2019-01-24T00:23:45.608Z,0.40
2019-01-24T00:24:20.169Z,0.40
2019-01-24T00:24:55.791Z,0.40
2019-01-24T00:25:30.305Z,0.40
2019-01-24T00:26:04.960Z,0.40
2019-01-24T00:26:39.584Z,0.50
2019-01-24T00:27:14.344Z,0.50
2019-01-24T00:27:48.914Z,0.50
2019-01-24T00:28:23.508Z,0.50
2019-01-24T00:28:58.095Z,0.50
2019-01-24T00:29:32.600Z,0.50
2019-01-24T00:30:15.082Z,0.50
2019-01-24T00:30:49.586Z,0.50
2019-01-24T00:31:24.175Z,0.50
2019-01-24T00:31:58.745Z,0.50
2019-01-24T00:32:33.318Z,0.60
2019-01-24T00:33:07.919Z,0.50
2019-01-24T00:33:42.572Z,0.50
2019-01-24T00:34:23.050Z,0.50
2019-01-24T00:34:54.756Z,0.60
2019-01-24T00:35:31.800Z,0.50
2019-01-24T00:36:06.462Z,0.60
2019-01-24T00:36:41.077Z,0.60
2019-01-24T00:37:15.873Z,0.50
2019-01-24T00:37:50.439Z,0.50
2019-01-24T00:38:25.097Z,0.60
2019-01-24T00:38:59.663Z,0.50
2019-01-24T00:39:34.316Z,0.60
2019-01-24T00:40:13.902Z,0.60
2019-01-24T00:40:49.230Z,0.50
2019-01-24T00:41:23.807Z,0.50
2019-01-24T00:41:58.512Z,0.50
2019-01-24T00:42:33.041Z,0.50
2019-01-24T00:43:09.200Z,0.60
2019-01-24T00:43:43.738Z,0.50
2019-01-24T00:44:18.341Z,0.60
2019-01-24T00:44:52.924Z,0.60
2019-01-24T00:45:27.509Z,0.60
2019-01-24T00:46:02.205Z,0.60
2019-01-24T00:46:36.908Z,0.50
2019-01-24T00:47:11.495Z,0.50
2019-01-24T00:47:46.140Z,0.50
2019-01-24T00:48:22.269Z,0.50
2019-01-24T00:48:59.389Z,0.60
2019-01-24T00:49:33.021Z,0.60
2019-01-24T00:50:10.599Z,0.60
2019-01-24T00:50:45.233Z,0.60
2019-01-24T00:51:21.310Z,0.60
2019-01-24T00:51:56.287Z,0.50
2019-01-24T00:52:33.684Z,0.50
2019-01-24T00:53:08.368Z,0.50
2019-01-24T00:53:44.202Z,0.50
2019-01-24T00:54:18.745Z,0.50
2019-01-24T00:54:53.738Z,0.50
2019-01-24T00:55:28.426Z,0.60
2019-01-24T00:56:02.986Z,0.50
2019-01-24T00:56:37.666Z,0.60
2019-01-24T00:57:12.254Z,0.60
2019-01-24T00:57:49.660Z,0.60
2019-01-24T00:58:24.434Z,0.60
2019-01-24T00:58:59.078Z,0.60
2019-01-24T00:59:33.674Z,0.60
2019-01-24T01:00:23.774Z,0.60
2019-01-24T01:01:17.613Z,0.60
2019-01-24T01:01:52.279Z,0.60
2019-01-24T01:02:26.854Z,0.60
2019-01-24T01:03:01.347Z,0.60
2019-01-24T01:03:36.159Z,0.60
2019-01-24T01:04:10.769Z,0.70
2019-01-24T01:04:45.322Z,0.60
2019-01-24T01:05:21.060Z,0.70
2019-01-24T01:05:55.565Z,0.70
2019-01-24T01:06:30.193Z,0.70
2019-01-24T01:07:05.605Z,0.70
2019-01-24T01:07:40.305Z,0.70
2019-01-24T01:08:14.972Z,0.70
2019-01-24T01:08:49.570Z,0.70
2019-01-24T01:09:24.158Z,0.70
2019-01-24T01:09:58.669Z,0.70
2019-01-24T01:10:33.196Z,0.70
2019-01-24T01:11:07.828Z,0.70
2019-01-24T01:11:42.554Z,0.70
2019-01-24T01:12:17.068Z,0.70
2019-01-24T01:12:51.805Z,0.70
2019-01-24T01:13:26.326Z,0.60
2019-01-24T01:14:00.944Z,0.60
2019-01-24T01:14:35.516Z,0.70
2019-01-24T01:15:12.932Z,0.60
2019-01-24T01:15:47.451Z,0.60
2019-01-24T01:16:22.057Z,0.50
2019-01-24T01:16:56.718Z,0.50
2019-01-24T01:17:31.397Z,0.50
2019-01-24T01:18:06.048Z,0.50
2019-01-24T01:18:40.683Z,0.50
2019-01-24T01:19:15.280Z,0.50
2019-01-24T01:19:49.830Z,0.50
2019-01-24T01:20:24.425Z,0.50
2019-01-24T01:20:59.244Z,0.50
2019-01-24T01:21:53.140Z,0.40
2019-01-24T01:22:27.715Z,0.40
2019-01-24T01:23:02.318Z,0.40
2019-01-24T01:23:36.885Z,0.40
2019-01-24T01:24:11.482Z,0.40
2019-01-24T01:24:45.996Z,0.40
2019-01-24T01:25:20.624Z,0.50
2019-01-24T01:25:55.214Z,0.50
2019-01-24T01:26:32.013Z,0.50
2019-01-24T01:27:06.895Z,0.50
2019-01-24T01:27:41.483Z,0.60
2019-01-24T01:28:16.077Z,0.60
2019-01-24T01:28:50.632Z,0.60
2019-01-24T01:29:25.163Z,0.60
2019-01-24T01:30:00.060Z,0.60
2019-01-24T01:30:34.766Z,0.60
2019-01-24T01:31:09.360Z,0.60
2019-01-24T01:31:44.016Z,0.60
2019-01-24T01:32:18.605Z,0.60
2019-01-24T01:32:53.512Z,0.60
2019-01-24T01:33:28.044Z,0.60
2019-01-24T01:34:02.633Z,0.60
2019-01-24T01:34:37.206Z,0.50
2019-01-24T01:35:11.873Z,0.50
2019-01-24T01:35:46.492Z,0.50
2019-01-24T01:36:21.061Z,0.60
2019-01-24T01:36:55.569Z,0.60
2019-01-24T01:37:30.146Z,0.60
2019-01-24T01:38:04.877Z,0.60
2019-01-24T01:38:39.444Z,0.60
2019-01-24T01:39:14.142Z,0.60
2019-01-24T01:39:48.715Z,0.60
2019-01-24T01:40:24.872Z,0.60
2019-01-24T01:40:59.467Z,0.60
2019-01-24T01:41:34.088Z,0.60
2019-01-24T01:42:09.821Z,0.60
2019-01-24T01:42:44.660Z,0.60
2019-01-24T01:43:19.268Z,0.60
2019-01-24T01:43:55.058Z,0.60
2019-01-24T01:44:29.573Z,0.60
2019-01-24T01:45:06.688Z,0.60
2019-01-24T01:45:41.397Z,0.60
2019-01-24T01:46:15.900Z,0.50
2019-01-24T01:46:50.481Z,0.60
2019-01-24T01:47:24.998Z,0.50
2019-01-24T01:47:59.520Z,0.50
2019-01-24T01:48:34.074Z,0.50
2019-01-24T01:49:08.583Z,0.50
2019-01-24T01:49:43.167Z,0.60
2019-01-24T01:50:20.105Z,0.50
2019-01-24T01:51:01.665Z,0.50
2019-01-24T01:51:36.331Z,0.50
2019-01-24T01:52:10.973Z,0.50
2019-01-24T01:52:45.528Z,0.50
2019-01-24T01:53:20.180Z,0.50
2019-01-24T01:53:54.773Z,0.60
2019-01-24T01:54:29.280Z,0.50
2019-01-24T01:55:04.263Z,0.50
2019-01-24T01:55:38.845Z,0.50
2019-01-24T01:56:13.456Z,0.50
2019-01-24T01:56:48.303Z,0.50
2019-01-24T01:57:22.903Z,0.50
2019-01-24T01:57:57.445Z,0.60
2019-01-24T01:58:33.240Z,0.60
2019-01-24T01:59:07.736Z,0.60
2019-01-24T01:59:42.253Z,0.60
2019-01-24T02:00:19.680Z,0.50
2019-01-24T02:00:54.193Z,0.50
2019-01-24T02:01:29.837Z,0.50
2019-01-24T02:02:04.608Z,0.60
2019-01-24T02:02:39.232Z,0.60
2019-01-24T02:03:13.861Z,0.60
2019-01-24T02:03:48.497Z,0.50
2019-01-24T02:04:25.193Z,0.50
2019-01-24T02:04:59.483Z,0.50
2019-01-24T02:05:34.081Z,0.50
2019-01-24T02:06:11.507Z,0.40
2019-01-24T02:06:46.308Z,0.50
2019-01-24T02:07:20.831Z,0.40
2019-01-24T02:07:55.588Z,0.40
2019-01-24T02:08:31.341Z,0.50
2019-01-24T02:09:09.055Z,0.40
2019-01-24T02:09:43.558Z,0.40
2019-01-24T02:10:20.894Z,0.40
2019-01-24T02:10:55.805Z,0.50
2019-01-24T02:11:32.006Z,0.50
2019-01-24T02:12:06.544Z,0.50
2019-01-24T02:13:00.555Z,0.50
2019-01-24T02:13:35.059Z,0.50
2019-01-24T02:14:09.821Z,0.50
2019-01-24T02:14:44.528Z,0.50
2019-01-24T02:15:19.441Z,0.60
2019-01-24T02:15:54.012Z,0.60
2019-01-24T02:16:28.526Z,0.60
2019-01-24T02:17:03.104Z,0.60
2019-01-24T02:17:37.610Z,0.60
2019-01-24T02:18:12.178Z,0.60
2019-01-24T02:18:46.713Z,0.60
2019-01-24T02:19:21.549Z,0.60
2019-01-24T02:19:56.206Z,0.60
2019-01-24T02:20:30.812Z,0.70
2019-01-24T02:21:05.493Z,0.60
2019-01-24T02:21:40.055Z,0.70
2019-01-24T02:22:14.669Z,0.70
2019-01-24T02:22:49.558Z,0.60
2019-01-24T02:23:24.205Z,0.60
2019-01-24T02:23:58.708Z,0.60
2019-01-24T02:24:34.838Z,0.60
2019-01-24T02:25:10.787Z,0.50
2019-01-24T02:25:45.302Z,0.50
2019-01-24T02:26:19.924Z,0.50
2019-01-24T02:26:54.729Z,0.40
2019-01-24T02:27:29.241Z,0.50
2019-01-24T02:28:24.660Z,0.50
2019-01-24T02:29:01.969Z,0.50
2019-01-24T02:29:36.570Z,0.50
2019-01-24T02:30:22.857Z,0.50
2019-01-24T02:30:57.513Z,0.50
2019-01-24T02:31:32.174Z,0.50
2019-01-24T02:32:06.775Z,0.50
2019-01-24T02:32:41.347Z,0.50
2019-01-24T02:33:18.554Z,0.50
2019-01-24T02:33:52.164Z,0.50
2019-01-24T02:34:26.731Z,0.50
2019-01-24T02:35:01.560Z,0.50
2019-01-24T02:35:36.217Z,0.50
2019-01-24T02:36:10.738Z,0.40
2019-01-24T02:36:45.249Z,0.40
2019-01-24T02:37:19.824Z,0.40
2019-01-24T02:37:54.589Z,0.40
2019-01-24T02:38:29.204Z,0.40
2019-01-24T02:39:05.324Z,0.30
2019-01-24T02:39:39.863Z,0.30
2019-01-24T02:40:14.612Z,0.40
2019-01-24T02:40:49.134Z,0.40
2019-01-24T02:41:23.770Z,0.30
2019-01-24T02:41:59.882Z,0.40
2019-01-24T02:42:34.432Z,0.40
2019-01-24T02:43:08.949Z,0.50
2019-01-24T02:43:43.461Z,0.60
2019-01-24T02:44:18.055Z,0.70
2019-01-24T02:44:52.808Z,0.80
2019-01-24T02:45:27.317Z,0.90
2019-01-24T02:46:01.808Z,0.90
2019-01-24T02:46:36.375Z,0.90
2019-01-24T02:47:10.896Z,0.90
2019-01-24T02:47:45.474Z,0.90
2019-01-24T02:48:20.043Z,0.90
2019-01-24T02:48:54.634Z,0.90
2019-01-24T02:49:29.353Z,0.90
2019-01-24T02:50:06.750Z,0.80
2019-01-24T02:50:41.269Z,0.80
2019-01-24T02:51:15.866Z,0.80
2019-01-24T02:51:50.376Z,0.80
2019-01-24T02:52:24.898Z,0.80
2019-01-24T02:52:59.477Z,0.80
2019-01-24T02:53:34.086Z,0.70
2019-01-24T02:54:08.646Z,0.70
2019-01-24T02:54:43.313Z,0.70
2019-01-24T02:55:17.895Z,0.70
2019-01-24T02:55:52.559Z,0.70
2019-01-24T02:56:27.103Z,0.70
2019-01-24T02:57:01.596Z,0.80
2019-01-24T02:57:36.132Z,0.80
2019-01-24T02:58:10.709Z,0.70
2019-01-24T02:58:45.313Z,0.70
2019-01-24T02:59:20.057Z,0.70
2019-01-24T02:59:55.009Z,0.70
2019-01-24T03:00:29.585Z,0.70
2019-01-24T03:01:04.634Z,0.70
2019-01-24T03:01:39.234Z,0.70
2019-01-24T03:02:13.905Z,0.70
2019-01-24T03:02:48.743Z,0.70
2019-01-24T03:03:23.251Z,0.80
2019-01-24T03:03:57.838Z,0.70
2019-01-24T03:04:32.348Z,0.70
2019-01-24T03:05:11.933Z,0.70
2019-01-24T03:05:46.465Z,0.70
2019-01-24T03:06:21.072Z,0.70
2019-01-24T03:06:55.589Z,0.60
2019-01-24T03:07:30.250Z,0.60
2019-01-24T03:08:04.899Z,0.60
2019-01-24T03:08:39.435Z,0.60
2019-01-24T03:09:14.245Z,0.60
2019-01-24T03:09:48.791Z,0.60
2019-01-24T03:10:24.973Z,0.60
2019-01-24T03:10:59.463Z,0.60
2019-01-24T03:11:34.162Z,0.60
2019-01-24T03:12:08.745Z,0.60
2019-01-24T03:12:43.339Z,0.50
2019-01-24T03:13:17.984Z,0.50
2019-01-24T03:13:52.606Z,0.50
2019-01-24T03:14:27.185Z,0.60
2019-01-24T03:15:01.935Z,0.60
2019-01-24T03:15:36.493Z,0.60
2019-01-24T03:16:11.141Z,0.60
2019-01-24T03:16:45.670Z,0.70
2019-01-24T03:17:20.553Z,0.60
2019-01-24T03:17:55.138Z,0.60
2019-01-24T03:18:29.668Z,0.60
2019-01-24T03:19:10.267Z,0.60
2019-01-24T03:19:48.265Z,0.60
2019-01-24T03:20:22.790Z,0.50
2019-01-24T03:20:57.405Z,0.50
2019-01-24T03:21:32.494Z,0.50
2019-01-24T03:22:13.092Z,0.50
2019-01-24T03:22:49.607Z,0.50
2019-01-24T03:23:24.192Z,0.50
2019-01-24T03:23:58.767Z,0.50
2019-01-24T03:24:41.967Z,0.50
2019-01-24T03:25:35.812Z,0.50
2019-01-24T03:26:10.437Z,0.50
2019-01-24T03:26:46.617Z,0.40
2019-01-24T03:27:21.443Z,0.50
2019-01-24T03:27:55.957Z,0.40
2019-01-24T03:28:30.823Z,0.50
2019-01-24T03:29:07.188Z,0.40
2019-01-24T03:29:44.094Z,0.50
2019-01-24T03:30:21.411Z,0.50
2019-01-24T03:30:55.922Z,0.50
2019-01-24T03:31:31.121Z,0.60
2019-01-24T03:32:05.864Z,0.60
2019-01-24T03:32:40.459Z,0.60
2019-01-24T03:33:15.366Z,0.50
2019-01-24T03:33:49.896Z,0.50
2019-01-24T03:34:26.674Z,0.50
2019-01-24T03:35:04.367Z,0.50
2019-01-24T03:35:37.617Z,0.40
2019-01-24T03:36:12.121Z,0.40
2019-01-24T03:36:46.679Z,0.40
2019-01-24T03:37:21.449Z,0.40
2019-01-24T03:37:55.962Z,0.50
2019-01-24T03:38:30.470Z,0.50
2019-01-24T03:39:07.768Z,0.50
2019-01-24T03:39:45.290Z,0.50
2019-01-24T03:40:20.010Z,0.50
2019-01-24T03:40:56.780Z,0.50
2019-01-24T03:41:31.405Z,0.50
2019-01-24T03:42:09.093Z,0.50
2019-01-24T03:42:44.267Z,0.50
2019-01-24T03:43:19.413Z,0.50
2019-01-24T03:43:57.254Z,0.50
2019-01-24T03:44:31.389Z,0.60
2019-01-24T03:45:09.054Z,0.60
2019-01-24T03:45:49.996Z,0.60
2019-01-24T03:46:24.506Z,0.60
2019-01-24T03:46:59.038Z,0.60
2019-01-24T03:47:35.377Z,0.60
2019-01-24T03:48:20.734Z,0.50
2019-01-24T03:48:56.775Z,0.60
2019-01-24T03:49:31.383Z,0.50
2019-01-24T03:50:09.171Z,0.60
2019-01-24T03:50:43.688Z,0.60
2019-01-24T03:51:18.319Z,0.60
2019-01-24T03:51:54.651Z,0.50
2019-01-24T03:52:29.226Z,0.50
2019-01-24T03:53:03.749Z,0.50
2019-01-24T03:53:38.344Z,0.50
2019-01-24T03:54:12.873Z,0.50
2019-01-24T03:54:47.396Z,0.50
2019-01-24T03:55:22.762Z,0.50
2019-01-24T03:55:57.368Z,0.50
2019-01-24T03:56:32.281Z,0.50
2019-01-24T03:57:06.944Z,0.60
2019-01-24T03:57:41.477Z,0.60
2019-01-24T03:58:16.310Z,0.60
2019-01-24T03:58:50.903Z,0.60
2019-01-24T03:59:25.584Z,0.60
2019-01-24T04:00:00.370Z,0.60
2019-01-24T04:00:35.082Z,0.60
2019-01-24T04:01:09.594Z,0.70
2019-01-24T04:01:44.428Z,0.70
2019-01-24T04:02:19.062Z,0.70
2019-01-24T04:02:53.927Z,0.70
2019-01-24T04:03:28.515Z,0.70
2019-01-24T04:04:03.165Z,0.70
2019-01-24T04:04:37.674Z,0.70
2019-01-24T04:05:12.843Z,0.70
2019-01-24T04:05:47.487Z,0.70
2019-01-24T04:06:23.024Z,0.70
2019-01-24T04:06:57.532Z,0.70
2019-01-24T04:07:32.038Z,0.70
2019-01-24T04:08:06.668Z,0.70
2019-01-24T04:08:41.205Z,0.70
2019-01-24T04:09:15.776Z,0.70
2019-01-24T04:09:50.375Z,0.70
2019-01-24T04:10:24.951Z,0.70
2019-01-24T04:10:59.457Z,0.70
2019-01-24T04:11:34.076Z,0.70
2019-01-24T04:12:08.702Z,0.70
2019-01-24T04:12:43.684Z,0.60
2019-01-24T04:13:18.264Z,0.70
2019-01-24T04:13:53.758Z,0.60
2019-01-24T04:14:30.121Z,0.60
2019-01-24T04:15:07.364Z,0.60
2019-01-24T04:15:41.884Z,0.70
2019-01-24T04:16:16.601Z,0.60
2019-01-24T04:16:51.188Z,0.70
2019-01-24T04:17:26.003Z,0.70
2019-01-24T04:18:00.740Z,0.70
2019-01-24T04:18:35.711Z,0.70
2019-01-24T04:19:11.211Z,0.70
2019-01-24T04:19:45.720Z,0.70
2019-01-24T04:20:20.355Z,0.70
2019-01-24T04:20:54.859Z,0.70
2019-01-24T04:21:29.371Z,0.70
2019-01-24T04:22:03.985Z,0.60
2019-01-24T04:22:38.493Z,0.70
2019-01-24T04:23:13.001Z,0.60
2019-01-24T04:23:50.211Z,0.70
2019-01-24T04:24:23.781Z,0.60
2019-01-24T04:24:58.289Z,0.60
2019-01-24T04:25:34.768Z,0.70
2019-01-24T04:26:09.286Z,0.70
2019-01-24T04:26:44.208Z,0.70
2019-01-24T04:27:18.796Z,0.70
2019-01-24T04:27:53.398Z,0.70
2019-01-24T04:28:27.970Z,0.70
2019-01-24T04:29:02.551Z,0.70
2019-01-24T04:29:37.136Z,0.70
2019-01-24T04:30:19.558Z,0.70
2019-01-24T04:30:55.598Z,0.70
2019-01-24T04:31:30.098Z,0.70
2019-01-24T04:32:04.614Z,0.70
2019-01-24T04:32:42.754Z,0.70
2019-01-24T04:33:17.267Z,0.70
2019-01-24T04:33:51.773Z,0.70
2019-01-24T04:34:26.461Z,0.70
2019-01-24T04:35:01.048Z,0.70
2019-01-24T04:35:35.699Z,0.70
2019-01-24T04:36:10.194Z,0.60
2019-01-24T04:36:44.716Z,0.70
2019-01-24T04:37:19.228Z,0.70
2019-01-24T04:37:53.827Z,0.70
2019-01-24T04:38:28.344Z,0.70
2019-01-24T04:39:04.559Z,0.70
2019-01-24T04:39:39.140Z,0.70
2019-01-24T04:40:17.989Z,0.60
2019-01-24T04:40:52.491Z,0.60
2019-01-24T04:41:27.002Z,0.60
2019-01-24T04:42:01.595Z,0.60
2019-01-24T04:42:36.175Z,0.60
2019-01-24T04:43:10.830Z,0.60
2019-01-24T04:43:45.849Z,0.70
2019-01-24T04:44:20.371Z,0.60
2019-01-24T04:44:54.961Z,0.60
2019-01-24T04:45:29.606Z,0.70
2019-01-24T04:46:04.364Z,0.70
2019-01-24T04:46:38.890Z,0.70
2019-01-24T04:47:13.711Z,0.70
2019-01-24T04:47:48.290Z,0.70
2019-01-24T04:48:22.901Z,0.70
2019-01-24T04:48:57.435Z,0.70
2019-01-24T04:49:31.961Z,0.70
2019-01-24T04:50:10.147Z,0.70
2019-01-24T04:50:44.731Z,0.70
2019-01-24T04:51:19.233Z,0.70
2019-01-24T04:51:53.811Z,0.70
2019-01-24T04:52:28.359Z,0.70
2019-01-24T04:53:03.224Z,0.70
2019-01-24T04:53:37.854Z,0.70
2019-01-24T04:54:12.495Z,0.70
2019-01-24T04:54:47.366Z,0.70
2019-01-24T04:55:21.984Z,0.70
2019-01-24T04:55:56.531Z,0.70
2019-01-24T04:56:31.086Z,0.70
2019-01-24T04:57:07.038Z,0.70
2019-01-24T04:57:41.983Z,0.70
2019-01-24T04:58:16.662Z,0.70
2019-01-24T04:58:51.214Z,0.70
2019-01-24T04:59:25.895Z,0.70
2019-01-24T05:00:00.491Z,0.70
2019-01-24T05:00:35.070Z,0.70
2019-01-24T05:01:09.725Z,0.70
2019-01-24T05:01:44.322Z,0.70
2019-01-24T05:02:18.936Z,0.70
2019-01-24T05:02:53.684Z,0.70
2019-01-24T05:03:28.597Z,0.70
2019-01-24T05:04:03.807Z,0.70
2019-01-24T05:04:38.454Z,0.70
2019-01-24T05:05:13.073Z,0.70
2019-01-24T05:05:47.737Z,0.70
2019-01-24T05:06:22.250Z,0.70
2019-01-24T05:06:56.819Z,0.70
2019-01-24T05:07:31.410Z,0.70
2019-01-24T05:08:05.998Z,0.70
2019-01-24T05:08:40.507Z,0.70
2019-01-24T05:09:15.132Z,0.70
2019-01-24T05:09:49.731Z,0.70
2019-01-24T05:10:25.163Z,0.70
2019-01-24T05:11:00.820Z,0.70
2019-01-24T05:11:35.355Z,0.70
2019-01-24T05:12:10.177Z,0.70
2019-01-24T05:12:45.013Z,0.70
2019-01-24T05:13:19.700Z,0.70
2019-01-24T05:13:54.289Z,0.70
2019-01-24T05:14:28.860Z,0.70
2019-01-24T05:15:04.050Z,0.80
2019-01-24T05:15:38.651Z,0.80
2019-01-24T05:16:13.205Z,0.80
2019-01-24T05:16:48.021Z,0.80
2019-01-24T05:17:23.496Z,0.80
2019-01-24T05:18:05.643Z,0.80
2019-01-24T05:18:40.365Z,0.80
2019-01-24T05:19:14.933Z,0.80
2019-01-24T05:19:49.622Z,0.80
2019-01-24T05:20:24.211Z,0.80
2019-01-24T05:20:58.765Z,0.80
2019-01-24T05:21:33.413Z,0.80
2019-01-24T05:22:07.955Z,0.80
2019-01-24T05:22:42.477Z,0.80
2019-01-24T05:23:16.994Z,0.80
2019-01-24T05:23:51.584Z,0.80
2019-01-24T05:24:26.245Z,0.90
2019-01-24T05:25:00.803Z,0.90
2019-01-24T05:25:35.394Z,0.80
2019-01-24T05:26:09.921Z,0.80
2019-01-24T05:26:44.432Z,0.80
2019-01-24T05:27:19.055Z,0.80
2019-01-24T05:27:53.646Z,0.70
2019-01-24T05:28:28.240Z,0.60
2019-01-24T05:29:02.815Z,0.60
2019-01-24T05:29:37.481Z,0.40
2019-01-24T05:30:17.784Z,0.30
2019-01-24T05:30:52.425Z,0.20
2019-01-24T05:31:27.018Z,0.20
2019-01-24T05:32:01.528Z,0.20
2019-01-24T05:32:36.060Z,0.10
2019-01-24T05:33:10.606Z,0.10
2019-01-24T05:33:45.114Z,0.10
2019-01-24T05:34:19.604Z,0.10
2019-01-24T05:34:55.738Z,0.10
2019-01-24T05:35:34.728Z,0.10
2019-01-24T05:36:06.454Z,0.10
2019-01-24T05:36:41.084Z,0.10
2019-01-24T05:37:15.656Z,0.10
2019-01-24T05:37:50.982Z,0.10
2019-01-24T05:38:25.535Z,0.10
2019-01-24T05:39:00.048Z,0.10
2019-01-24T05:39:34.663Z,0.10
2019-01-24T05:40:12.647Z,0.10
2019-01-24T05:40:46.268Z,0.10
2019-01-24T05:41:20.789Z,0.00
2019-01-24T05:41:55.377Z,0.00
2019-01-24T05:42:29.996Z,-0.10
2019-01-24T05:43:04.607Z,-0.10
2019-01-24T05:43:39.212Z,-0.10
2019-01-24T05:44:13.725Z,-0.20
2019-01-24T05:44:48.309Z,-0.20
2019-01-24T05:45:22.905Z,-0.30
2019-01-24T05:45:57.568Z,-0.30
2019-01-24T05:46:32.140Z,-0.30
2019-01-24T05:47:06.837Z,-0.30
2019-01-24T05:47:41.656Z,-0.30
2019-01-24T05:48:16.224Z,-0.30
2019-01-24T05:48:50.922Z,-0.30
2019-01-24T05:49:25.504Z,-0.30
2019-01-24T05:50:00.017Z,-0.30
2019-01-24T05:50:34.765Z,-0.30
2019-01-24T05:51:09.294Z,-0.30
2019-01-24T05:51:43.875Z,-0.30
2019-01-24T05:52:19.549Z,-0.30
2019-01-24T05:52:54.636Z,-0.30
2019-01-24T05:53:29.315Z,-0.30
2019-01-24T05:54:04.041Z,-0.20
2019-01-24T05:54:38.645Z,-0.20
2019-01-24T05:55:14.545Z,-0.20
2019-01-24T05:55:50.564Z,-0.20
2019-01-24T05:56:25.160Z,-0.20
2019-01-24T05:56:59.694Z,-0.20
2019-01-24T05:57:34.362Z,-0.20
2019-01-24T05:58:08.933Z,-0.20
2019-01-24T05:58:43.541Z,-0.20
2019-01-24T05:59:18.127Z,-0.20
2019-01-24T05:59:54.439Z,-0.20
2019-01-24T06:00:32.434Z,-0.20
2019-01-24T06:01:09.851Z,-0.20
2019-01-24T06:01:45.919Z,-0.20
2019-01-24T06:02:20.499Z,-0.20
2019-01-24T06:02:55.417Z,-0.20
2019-01-24T06:03:29.927Z,-0.20
2019-01-24T06:04:10.586Z,-0.20
2019-01-24T06:04:45.098Z,-0.30
2019-01-24T06:05:19.777Z,-0.40
2019-01-24T06:05:54.294Z,-0.50
2019-01-24T06:06:28.913Z,-0.50
2019-01-24T06:07:03.442Z,-0.50
2019-01-24T06:07:37.978Z,-0.50
2019-01-24T06:08:12.508Z,-0.50
2019-01-24T06:08:47.097Z,-0.40
2019-01-24T06:09:21.608Z,-0.40
2019-01-24T06:09:56.121Z,-0.40
2019-01-24T06:10:30.631Z,-0.40
2019-01-24T06:11:05.304Z,-0.30
2019-01-24T06:11:39.847Z,-0.40
2019-01-24T06:12:14.410Z,-0.40
2019-01-24T06:12:48.943Z,-0.40
2019-01-24T06:13:23.547Z,-0.40
2019-01-24T06:13:58.047Z,-0.40
2019-01-24T06:14:32.659Z,-0.50
2019-01-24T06:15:10.109Z,-0.40
2019-01-24T06:15:44.711Z,-0.40
2019-01-24T06:16:19.292Z,-0.40
2019-01-24T06:16:59.582Z,-0.40
2019-01-24T06:17:34.190Z,-0.30
2019-01-24T06:18:08.728Z,-0.30
2019-01-24T06:18:43.273Z,-0.30
2019-01-24T06:19:17.800Z,-0.30
2019-01-24T06:19:52.383Z,-0.30
2019-01-24T06:20:26.900Z,-0.20
2019-01-24T06:21:01.412Z,-0.20
2019-01-24T06:21:36.299Z,-0.20
2019-01-24T06:22:10.841Z,-0.20
2019-01-24T06:22:45.395Z,-0.20
2019-01-24T06:23:19.963Z,-0.20
2019-01-24T06:23:54.545Z,-0.20
2019-01-24T06:24:29.159Z,-0.20
2019-01-24T06:25:05.310Z,-0.20
2019-01-24T06:25:39.881Z,-0.20
2019-01-24T06:26:14.414Z,-0.10
2019-01-24T06:26:48.949Z,-0.10
2019-01-24T06:27:23.460Z,0.00
2019-01-24T06:27:57.978Z,0.00
2019-01-24T06:28:32.474Z,0.00
2019-01-24T06:29:06.989Z,-0.10
2019-01-24T06:29:41.581Z,0.00
2019-01-24T06:30:21.155Z,0.00
2019-01-24T06:30:55.716Z,-0.10
2019-01-24T06:31:30.312Z,-0.10
2019-01-24T06:32:05.338Z,-0.10
2019-01-24T06:32:39.947Z,-0.20
2019-01-24T06:33:14.470Z,-0.20
2019-01-24T06:33:49.105Z,-0.10
2019-01-24T06:34:23.647Z,-0.10
2019-01-24T06:34:58.172Z,-0.20
2019-01-24T06:35:32.718Z,-0.20
2019-01-24T06:36:07.325Z,-0.20
2019-01-24T06:36:41.920Z,-0.20
2019-01-24T06:37:16.485Z,-0.20
2019-01-24T06:37:51.615Z,-0.20
2019-01-24T06:38:26.211Z,-0.10
2019-01-24T06:39:00.736Z,-0.10
2019-01-24T06:39:35.249Z,-0.10
2019-01-24T06:40:12.400Z,-0.10
2019-01-24T06:40:46.964Z,0.00
2019-01-24T06:41:21.514Z,0.00
2019-01-24T06:41:56.154Z,0.00
2019-01-24T06:42:30.856Z,0.00
2019-01-24T06:43:05.647Z,0.00
2019-01-24T06:43:42.078Z,0.00
2019-01-24T06:44:16.680Z,0.00
2019-01-24T06:44:51.193Z,0.10
2019-01-24T06:45:25.747Z,0.00
2019-01-24T06:46:00.376Z,0.00
2019-01-24T06:46:35.364Z,0.00
2019-01-24T06:47:10.262Z,0.00
2019-01-24T06:47:44.850Z,0.00
2019-01-24T06:48:19.379Z,0.00
2019-01-24T06:48:53.962Z,0.10
2019-01-24T06:49:30.070Z,0.10
2019-01-24T06:50:07.928Z,0.20
2019-01-24T06:50:42.510Z,0.20
2019-01-24T06:51:17.075Z,0.30
2019-01-24T06:51:51.714Z,0.20
2019-01-24T06:52:26.233Z,0.20
2019-01-24T06:53:03.349Z,0.20
2019-01-24T06:53:37.946Z,0.10
2019-01-24T06:54:12.455Z,0.10
2019-01-24T06:54:47.033Z,0.10
2019-01-24T06:55:26.886Z,0.10
2019-01-24T06:56:01.467Z,0.20
2019-01-24T06:56:36.033Z,0.20
2019-01-24T06:57:10.545Z,0.10
2019-01-24T06:57:45.052Z,0.20
2019-01-24T06:58:19.572Z,0.20
2019-01-24T06:58:54.157Z,0.20
2019-01-24T06:59:28.826Z,0.20
2019-01-24T07:00:04.154Z,0.20
2019-01-24T07:00:38.747Z,0.20
2019-01-24T07:01:13.284Z,0.20
2019-01-24T07:01:47.833Z,0.20
2019-01-24T07:02:22.452Z,0.20
2019-01-24T07:02:57.393Z,0.20
2019-01-24T07:03:31.988Z,0.20
2019-01-24T07:04:06.502Z,0.20
2019-01-24T07:04:41.169Z,0.10
2019-01-24T07:05:16.138Z,0.10
2019-01-24T07:05:55.312Z,0.10
2019-01-24T07:06:26.922Z,0.10
2019-01-24T07:07:01.418Z,0.10
2019-01-24T07:07:35.965Z,0.00
2019-01-24T07:08:10.488Z,0.00
2019-01-24T07:08:45.129Z,0.10
2019-01-24T07:09:19.627Z,0.10
2019-01-24T07:09:54.210Z,0.10
2019-01-24T07:10:28.970Z,0.10
2019-01-24T07:11:04.358Z,0.10
2019-01-24T07:11:39.092Z,0.20
2019-01-24T07:12:13.624Z,0.20
2019-01-24T07:12:48.230Z,0.30
2019-01-24T07:13:22.767Z,0.30
2019-01-24T07:13:57.418Z,0.30
2019-01-24T07:14:32.095Z,0.40
2019-01-24T07:15:09.779Z,0.40
2019-01-24T07:15:44.316Z,0.40
2019-01-24T07:16:18.849Z,0.50
2019-01-24T07:16:53.382Z,0.50
2019-01-24T07:17:28.041Z,0.40
2019-01-24T07:18:04.035Z,0.50
2019-01-24T07:18:38.557Z,0.40
2019-01-24T07:19:13.489Z,0.50
2019-01-24T07:19:48.171Z,0.50
2019-01-24T07:20:22.837Z,0.40
2019-01-24T07:20:57.345Z,0.40
2019-01-24T07:21:31.941Z,0.40
2019-01-24T07:22:11.486Z,0.50
2019-01-24T07:22:46.137Z,0.50
2019-01-24T07:23:20.650Z,0.40
2019-01-24T07:23:55.267Z,0.40
2019-01-24T07:24:52.742Z,0.40
2019-01-24T07:25:29.421Z,0.40
2019-01-24T07:26:05.671Z,0.40
2019-01-24T07:26:41.472Z,0.30
2019-01-24T07:27:15.992Z,0.40
2019-01-24T07:27:50.658Z,0.40
2019-01-24T07:28:25.198Z,0.40
2019-01-24T07:28:59.877Z,0.40
2019-01-24T07:29:39.340Z,0.40
2019-01-24T07:30:16.340Z,0.40
2019-01-24T07:30:50.933Z,0.50
2019-01-24T07:31:25.424Z,0.50
2019-01-24T07:32:00.102Z,0.50
2019-01-24T07:32:35.545Z,0.50
2019-01-24T07:33:10.168Z,0.40
2019-01-24T07:33:44.787Z,0.40
2019-01-24T07:34:19.752Z,0.40
2019-01-24T07:34:54.412Z,0.40
2019-01-24T07:35:28.994Z,0.50
2019-01-24T07:36:04.271Z,0.50
2019-01-24T07:36:38.986Z,0.40
2019-01-24T07:37:13.549Z,0.30
2019-01-24T07:37:50.016Z,0.20
2019-01-24T07:38:24.524Z,0.20
2019-01-24T07:38:59.057Z,0.20
2019-01-24T07:39:33.648Z,0.30
2019-01-24T07:40:14.098Z,0.30
2019-01-24T07:40:48.854Z,0.20
2019-01-24T07:41:23.344Z,0.20
2019-01-24T07:41:57.865Z,0.10
2019-01-24T07:42:33.480Z,0.00
2019-01-24T07:43:08.067Z,0.00
2019-01-24T07:43:42.619Z,0.00
2019-01-24T07:44:17.228Z,0.00
2019-01-24T07:44:51.779Z,-0.10
2019-01-24T07:45:32.084Z,-0.10
2019-01-24T07:46:06.584Z,-0.10
2019-01-24T07:46:42.497Z,-0.10
2019-01-24T07:47:17.279Z,-0.20